Time;durP1;ratioP1;P1;durP2;ratioP2;P2;SDS_P1;SDS_P2;PMS_P1;PMS_P2;Temp;Humidity;BMP_temperature;BMP_pressure;BME280_temperature;BME280_humidity;BME280_pressure;Samples;Min_cycle;Max_cycle;Signal;HPM_P1;HPM_P2
2022/04/06 00:01:03;;;;;;;17.90;5.78;;;;;;;11.12;68.09;100437.41;5116796;28;20055;-61
2022/04/06 00:03:31;;;;;;;15.38;4.90;;;;;;;11.14;68.54;100448.75;5124260;27;20055;-61
2022/04/06 00:06:00;;;;;;;17.95;4.70;;;;;;;11.13;68.67;100448.97;5114094;28;20043;-62
2022/04/06 00:08:28;;;;;;;10.65;4.10;;;;;;;11.11;68.56;100438.44;5111018;28;20079;-62
2022/04/06 00:10:56;;;;;;;13.93;5.20;;;;;;;11.09;68.40;100432.50;5114997;28;20070;-62
2022/04/06 00:13:24;;;;;;;14.40;3.95;;;;;;;11.09;68.33;100435.19;5113848;27;20048;-62
2022/04/06 00:15:53;;;;;;;16.38;5.97;;;;;;;11.08;68.20;100425.47;5106298;28;20043;-61
2022/04/06 00:18:21;;;;;;;8.00;3.97;;;;;;;11.08;68.39;100425.47;5110059;28;20080;-61
2022/04/06 00:20:49;;;;;;;16.73;4.70;;;;;;;11.07;68.20;100419.28;5122382;28;20047;-62
2022/04/06 00:23:18;;;;;;;13.90;4.10;;;;;;;11.07;68.09;100421.97;5120585;28;20094;-61
2022/04/06 00:25:45;;;;;;;14.90;4.15;;;;;;;11.06;68.46;100416.81;5116886;28;20070;-61
2022/04/06 00:28:13;;;;;;;12.40;4.10;;;;;;;11.06;68.34;100417.66;5119962;28;20055;-61
2022/04/06 00:30:41;;;;;;;17.98;4.00;;;;;;;11.04;68.20;100417.06;5121459;28;20052;-61
2022/04/06 00:33:09;;;;;;;15.13;3.90;;;;;;;11.05;68.37;100420.56;5122126;28;20050;-62
2022/04/06 00:35:36;;;;;;;15.00;4.30;;;;;;;11.05;68.15;100423.25;5110555;28;20063;-62
2022/04/06 00:38:06;;;;;;;16.98;4.57;;;;;;;11.02;68.23;100416.47;5105758;28;20139;-62
2022/04/06 00:40:36;;;;;;;11.05;3.25;;;;;;;11.02;67.98;100421.03;5109671;28;20151;-61
2022/04/06 00:43:07;;;;;;;15.70;4.60;;;;;;;11.03;68.00;100419.97;5120739;28;20040;-62
2022/04/06 00:45:35;;;;;;;17.85;4.80;;;;;;;11.02;68.15;100415.66;5122044;28;20080;-62
2022/04/06 00:48:03;;;;;;;13.88;4.03;;;;;;;11.02;68.29;100418.34;5122152;28;20059;-62
2022/04/06 00:50:31;;;;;;;17.98;4.43;;;;;;;11.01;68.04;100420.22;5114591;28;20077;-62
2022/04/06 00:52:59;;;;;;;12.90;4.28;;;;;;;11.00;68.01;100415.06;5119348;28;20096;-62
2022/04/06 00:55:31;;;;;;;11.88;3.50;;;;;;;10.99;67.80;100405.38;5113596;28;20083;-62
2022/04/06 00:58:00;;;;;;;11.85;3.55;;;;;;;10.99;68.33;100402.69;5109047;28;20043;-62
2022/04/06 01:00:28;;;;;;;11.65;3.83;;;;;;;11.00;68.05;100407.00;5109922;28;20083;-62
2022/04/06 01:02:56;;;;;;;10.85;4.03;;;;;;;10.89;67.96;100376.41;5118642;28;20058;-61
2022/04/06 01:05:25;;;;;;;14.65;3.60;;;;;;;11.00;68.21;100402.44;5115792;28;20093;-61
2022/04/06 01:07:55;;;;;;;14.43;4.80;;;;;;;11.00;68.04;100394.38;5119483;28;20048;-62
2022/04/06 01:10:23;;;;;;;11.60;3.70;;;;;;;10.99;67.93;100403.50;5107323;28;20138;-61
2022/04/06 01:12:51;;;;;;;16.55;3.63;;;;;;;10.97;68.16;100400.22;5117508;28;20078;-61
2022/04/06 01:15:20;;;;;;;13.93;4.10;;;;;;;10.97;67.85;100394.84;5116731;28;20566;-61
2022/04/06 01:17:48;;;;;;;12.05;3.58;;;;;;;10.97;68.03;100400.22;5117634;28;20075;-61
2022/04/06 01:20:15;;;;;;;12.82;3.50;;;;;;;10.97;67.85;100394.84;5118212;28;20072;-61
2022/04/06 01:22:45;;;;;;;11.60;4.07;;;;;;;10.96;68.00;100395.09;5116704;28;20116;-62
2022/04/06 01:25:12;;;;;;;18.23;4.75;;;;;;;10.97;68.06;100391.34;5113160;28;20478;-62
2022/04/06 01:27:40;;;;;;;15.00;3.88;;;;;;;10.96;67.89;100395.09;5108082;28;20056;-62
2022/04/06 01:30:09;;;;;;;15.95;4.25;;;;;;;10.97;68.01;100385.97;5122908;28;20119;-62
2022/04/06 01:32:37;;;;;;;13.15;4.18;;;;;;;10.96;67.93;100389.72;5109382;28;20087;-62
2022/04/06 01:35:06;;;;;;;11.93;3.35;;;;;;;10.95;67.67;100388.06;5118692;28;20508;-62
2022/04/06 01:37:34;;;;;;;12.23;3.83;;;;;;;10.94;67.68;100383.75;5110588;28;20424;-62
2022/04/06 01:40:05;;;;;;;14.10;3.47;;;;;;;10.95;67.83;100383.50;5120178;28;20043;-62
2022/04/06 01:42:33;;;;;;;12.95;4.07;;;;;;;10.82;67.67;100372.19;5119872;28;20083;-62
2022/04/06 01:45:01;;;;;;;11.80;3.03;;;;;;;10.93;67.75;100382.13;5110305;28;20043;-61
2022/04/06 01:47:29;;;;;;;17.48;4.28;;;;;;;10.92;67.60;100383.16;5118655;28;20067;-62
2022/04/06 01:52:42;;;;;;;11.32;3.00;;;;;;;10.90;67.43;100375.34;5121074;27;20044;-62
2022/04/06 01:55:12;;;;;;;16.73;3.60;;;;;;;10.90;67.70;100378.03;5119755;28;20079;-62
2022/04/06 01:57:41;;;;;;;9.32;2.80;;;;;;;10.88;67.36;100377.44;5117186;28;20040;-62
2022/04/06 02:00:12;;;;;;;11.98;3.38;;;;;;;10.88;67.54;100376.63;5126478;27;20089;-62
2022/04/06 02:02:41;;;;;;;13.98;3.63;;;;;;;10.87;67.54;100375.81;5121017;27;20048;-62
2022/04/06 02:05:12;;;;;;;14.52;3.03;;;;;;;10.86;67.44;100368.78;5123323;28;20055;-62
2022/04/06 02:07:39;;;;;;;12.30;3.90;;;;;;;10.85;67.26;100372.53;5117391;28;20392;-62
2022/04/06 02:10:08;;;;;;;8.90;2.58;;;;;;;10.86;67.38;100376.03;5108246;28;20072;-62
2022/04/06 02:12:38;;;;;;;14.38;3.95;;;;;;;10.83;67.34;100368.44;5119572;28;20048;-62
2022/04/06 02:15:10;;;;;;;10.15;2.83;;;;;;;10.84;67.25;100372.78;5120465;28;20089;-62
2022/04/06 02:17:38;;;;;;;9.93;3.33;;;;;;;10.82;67.27;100362.25;5126141;28;20063;-61
2022/04/06 02:20:06;;;;;;;14.10;3.72;;;;;;;10.83;67.11;100366.56;5118296;28;20071;-61
2022/04/06 02:22:34;;;;;;;9.75;3.00;;;;;;;10.82;67.32;100362.25;5120913;27;20075;-61
2022/04/06 02:25:02;;;;;;;10.90;3.25;;;;;;;10.82;67.03;100353.38;5121822;28;20067;-61
2022/04/06 02:27:30;;;;;;;14.25;3.08;;;;;;;10.82;67.18;100364.13;5123438;28;20472;-61
2022/04/06 02:29:59;;;;;;;10.63;3.40;;;;;;;10.81;67.19;100363.31;5120107;28;20134;-62
2022/04/06 02:32:27;;;;;;;16.17;4.50;;;;;;;10.81;67.12;100349.06;5120718;27;20101;-61
2022/04/06 02:34:54;;;;;;;11.15;3.40;;;;;;;10.79;67.06;100354.66;5111102;27;20048;-61
2022/04/06 02:37:22;;;;;;;14.65;3.97;;;;;;;10.80;67.33;100345.53;5115065;28;20130;-62
2022/04/06 02:39:50;;;;;;;11.00;4.35;;;;;;;10.79;67.04;100343.09;5116244;28;20131;-61
2022/04/06 02:42:18;;;;;;;9.82;2.85;;;;;;;10.80;66.88;100350.09;5122015;28;20043;-61
2022/04/06 02:44:45;;;;;;;16.92;4.53;;;;;;;10.80;67.01;100342.84;5122647;28;20047;-62
2022/04/06 02:47:14;;;;;;;10.43;3.28;;;;;;;10.80;66.86;100339.34;5116224;28;20067;-62
2022/04/06 02:49:42;;;;;;;13.95;3.13;;;;;;;10.80;66.89;100336.66;5124424;28;20047;-62
2022/04/06 02:52:10;;;;;;;15.43;3.03;;;;;;;10.79;66.82;100333.16;5115037;28;20128;-61
2022/04/06 02:54:38;;;;;;;13.73;3.22;;;;;;;10.79;66.74;100343.09;5133259;27;20138;-62
2022/04/06 02:57:06;;;;;;;12.63;2.92;;;;;;;10.79;66.68;100341.22;5120127;28;20114;-62
2022/04/06 02:59:34;;;;;;;14.57;3.20;;;;;;;10.77;66.32;100333.38;5118810;28;20059;-61
2022/04/06 03:02:01;;;;;;;9.05;2.60;;;;;;;10.75;66.71;100327.44;5124155;28;20074;-61
2022/04/06 03:04:31;;;;;;;13.63;3.65;;;;;;;10.74;66.46;100328.50;5121107;28;20062;-61
2022/04/06 03:06:58;;;;;;;10.90;2.85;;;;;;;10.76;66.65;100325.56;5116087;27;20083;-61
2022/04/06 03:09:26;;;;;;;8.93;3.13;;;;;;;10.74;66.23;100323.13;5117701;28;20095;-62
2022/04/06 03:11:54;;;;;;;17.52;3.30;;;;;;;10.73;66.53;100321.47;5122890;28;20186;-61
2022/04/06 03:14:21;;;;;;;11.80;3.20;;;;;;;10.73;66.29;100312.59;5121676;28;20048;-62
2022/04/06 03:16:49;;;;;;;10.77;2.78;;;;;;;10.73;66.31;100317.97;5123145;28;20074;-61
2022/04/06 03:19:17;;;;;;;17.20;2.95;;;;;;;10.72;66.40;100314.47;5111570;27;20055;-61
2022/04/06 03:21:46;;;;;;;16.33;3.83;;;;;;;10.66;66.38;100295.78;5130405;27;20078;-62
2022/04/06 03:24:13;;;;;;;8.25;2.75;;;;;;;10.72;66.10;100308.28;5123109;28;20495;-62
2022/04/06 03:26:41;;;;;;;7.65;3.47;;;;;;;10.68;66.28;100297.19;5118511;28;20047;-62
2022/04/06 03:29:09;;;;;;;11.70;2.40;;;;;;;10.69;66.00;100308.75;5120182;28;20064;-61
2022/04/06 03:31:37;;;;;;;10.15;3.40;;;;;;;10.68;66.30;100302.56;5113998;27;20071;-62
2022/04/06 03:34:05;;;;;;;9.02;3.80;;;;;;;10.68;66.24;100293.66;5121495;28;20162;-62
2022/04/06 03:36:33;;;;;;;7.63;2.90;;;;;;;10.67;66.15;100295.53;5120193;28;20044;-62
2022/04/06 03:39:02;;;;;;;11.70;3.08;;;;;;;10.65;65.81;100288.78;5107018;28;20080;-62
2022/04/06 03:41:30;;;;;;;11.55;2.38;;;;;;;10.66;66.18;100287.72;5125722;27;20133;-62
2022/04/06 03:43:57;;;;;;;10.82;2.35;;;;;;;10.65;65.94;100286.09;5118292;27;20131;-62
2022/04/06 03:46:25;;;;;;;8.55;3.28;;;;;;;10.64;65.90;100285.28;5111562;28;20075;-62
2022/04/06 03:48:53;;;;;;;6.85;2.60;;;;;;;10.64;65.77;100281.75;5113704;28;20087;-62
2022/04/06 03:51:20;;;;;;;11.07;2.17;;;;;;;10.63;65.80;100277.44;5112909;27;20166;-62
2022/04/06 03:53:48;;;;;;;11.20;2.65;;;;;;;10.63;65.82;100283.63;5123555;28;20174;-62
2022/04/06 03:56:17;;;;;;;12.18;2.72;;;;;;;10.61;65.65;100277.69;5111251;28;20054;-62
2022/04/06 03:58:45;;;;;;;7.38;2.28;;;;;;;10.60;65.69;100273.34;5117878;28;20051;-62
2022/04/06 04:01:13;;;;;;;11.38;2.60;;;;;;;10.60;65.59;100275.22;5114407;28;20079;-62
2022/04/06 04:03:40;;;;;;;5.63;2.08;;;;;;;10.59;65.63;100277.09;5120738;28;20044;-62
2022/04/06 04:06:08;;;;;;;12.50;2.95;;;;;;;10.59;65.87;100274.41;5110232;28;20043;-62
2022/04/06 04:08:36;;;;;;;13.23;2.92;;;;;;;10.58;65.84;100270.09;5106871;28;20056;-62
2022/04/06 04:11:04;;;;;;;8.10;2.38;;;;;;;10.58;65.76;100269.28;5113287;28;20082;-62
2022/04/06 04:13:33;;;;;;;10.90;2.63;;;;;;;10.57;65.94;100270.31;5108940;28;20484;-62
2022/04/06 04:16:01;;;;;;;12.43;3.55;;;;;;;10.57;65.90;100273.00;5112657;28;20040;-62
2022/04/06 04:18:29;;;;;;;13.43;4.15;;;;;;;10.57;65.76;100267.63;5108925;28;20159;-62
2022/04/06 04:23:38;;;;;;;7.68;2.40;;;;;;;10.57;65.62;100270.31;5108152;27;20075;-62
2022/04/06 04:26:06;;;;;;;11.63;2.85;;;;;;;10.57;65.62;100259.56;5109676;28;20115;-62
2022/04/06 04:28:35;;;;;;;11.32;2.97;;;;;;;10.57;65.67;100263.06;5114193;28;20103;-62
2022/04/06 04:31:03;;;;;;;11.48;3.60;;;;;;;10.58;66.04;100259.34;5114507;28;20071;-62
2022/04/06 04:33:31;;;;;;;7.78;2.80;;;;;;;10.58;65.54;100258.53;5111390;28;20058;-62
2022/04/06 04:35:59;;;;;;;11.07;2.83;;;;;;;10.56;65.64;100252.56;5117888;28;20067;-62
2022/04/06 04:38:29;;;;;;;11.95;3.72;;;;;;;10.56;65.79;100248.00;5120405;28;20090;-62
2022/04/06 04:40:57;;;;;;;12.82;2.92;;;;;;;10.57;65.75;100264.94;5113343;28;20044;-62
2022/04/06 04:43:25;;;;;;;11.95;2.88;;;;;;;10.56;65.93;100260.63;5114799;28;20142;-62
2022/04/06 04:45:54;;;;;;;8.57;2.70;;;;;;;10.55;65.85;100245.56;5113137;28;20043;-62
2022/04/06 04:48:22;;;;;;;15.13;4.40;;;;;;;10.55;65.69;100251.75;5112627;28;20039;-62
2022/04/06 04:50:50;;;;;;;12.70;3.25;;;;;;;10.55;65.90;100257.13;5110562;28;20206;-62
2022/04/06 04:53:18;;;;;;;16.15;3.53;;;;;;;10.57;66.08;100246.13;5109838;28;20035;-59
2022/04/06 04:55:45;;;;;;;12.55;3.97;;;;;;;10.56;65.67;100247.19;5115851;28;20134;-60
2022/04/06 04:58:13;;;;;;;16.17;3.95;;;;;;;10.55;65.95;100250.94;5121478;28;20071;-59
2022/04/06 05:00:41;;;;;;;14.43;3.22;;;;;;;10.54;65.73;100243.94;5117190;28;20084;-61
2022/04/06 05:03:10;;;;;;;14.60;3.58;;;;;;;10.53;65.65;100240.41;5114977;28;20048;-62
2022/04/06 05:05:39;;;;;;;9.48;2.58;;;;;;;10.52;65.96;100246.84;5116689;28;20047;-62
2022/04/06 05:08:08;;;;;;;14.38;4.35;;;;;;;10.51;65.64;100242.53;5119105;28;20067;-62
2022/04/06 05:10:36;;;;;;;14.30;3.88;;;;;;;10.51;65.58;100241.72;5114590;28;20111;-61
2022/04/06 05:13:04;;;;;;;13.60;3.47;;;;;;;10.51;65.81;100239.03;5120975;28;20394;-61
2022/04/06 05:15:32;;;;;;;14.35;3.58;;;;;;;10.51;65.81;100242.53;5109089;28;20136;-61
2022/04/06 05:18:00;;;;;;;9.48;3.20;;;;;;;10.52;65.76;100230.72;5111488;28;20115;-60
2022/04/06 05:20:29;;;;;;;11.13;3.30;;;;;;;10.51;65.74;100242.53;5111901;28;20043;-67
2022/04/06 05:22:57;;;;;;;7.72;2.90;;;;;;;10.52;65.45;100237.97;5120199;28;20527;-61
2022/04/06 05:25:24;;;;;;;9.60;4.07;;;;;;;10.51;65.64;100239.03;5124246;28;20071;-63
2022/04/06 05:27:54;;;;;;;12.27;3.20;;;;;;;10.52;65.75;100235.28;5114113;28;20044;-63
2022/04/06 05:30:23;;;;;;;9.93;3.20;;;;;;;10.52;65.63;100229.91;5120484;28;20087;-62
2022/04/06 05:32:53;;;;;;;9.93;3.03;;;;;;;10.54;65.32;100227.81;5123085;27;20693;-61
2022/04/06 05:35:21;;;;;;;12.88;3.05;;;;;;;10.52;65.50;100230.72;5114769;28;20090;-65
2022/04/06 05:37:51;;;;;;;11.88;3.22;;;;;;;10.52;65.52;100228.03;5111292;28;20519;-61
2022/04/06 05:40:20;;;;;;;10.68;3.75;;;;;;;10.51;65.58;100233.66;5116974;28;20048;-62
2022/04/06 05:42:47;;;;;;;12.43;3.08;;;;;;;10.51;65.43;100228.28;5121694;28;20111;-61
2022/04/06 05:45:16;;;;;;;9.35;2.85;;;;;;;10.46;65.06;100225.47;5122078;28;20067;-61
2022/04/06 05:47:43;;;;;;;12.38;2.90;;;;;;;10.50;65.50;100229.34;5120994;28;20054;-63
2022/04/06 05:50:12;;;;;;;8.52;2.40;;;;;;;10.51;65.04;100239.03;4752606;28;10000426;-63
2022/04/06 05:52:40;;;;;;;15.10;4.18;;;;;;;10.48;64.80;100223.38;5122138;28;20067;-60
2022/04/06 05:55:10;;;;;;;11.27;3.03;;;;;;;10.44;64.67;100223.03;5118956;28;20107;-60
2022/04/06 05:57:38;;;;;;;12.18;2.47;;;;;;;10.46;64.53;100233.53;5118571;28;20141;-61
2022/04/06 06:00:08;;;;;;;10.57;2.63;;;;;;;10.48;64.53;100231.44;5121656;28;20055;-61
2022/04/06 06:02:36;;;;;;;5.57;2.05;;;;;;;10.55;64.55;100216.00;5115859;27;20062;-62
2022/04/06 06:05:04;;;;;;;10.07;2.17;;;;;;;10.49;64.35;100227.69;5106501;28;20051;-60
2022/04/06 06:07:32;;;;;;;9.15;1.92;;;;;;;10.52;63.62;100213.78;5114030;28;20083;-60
2022/04/06 06:10:02;;;;;;;10.32;2.03;;;;;;;10.60;63.13;100225.00;5109976;28;20082;-61
2022/04/06 06:12:31;;;;;;;11.43;2.60;;;;;;;10.59;63.08;100231.41;5113043;28;20090;-61
2022/04/06 06:15:00;;;;;;;5.07;2.00;;;;;;;10.54;63.33;100234.00;4764260;28;9999830;-65
2022/04/06 06:17:28;;;;;;;13.60;2.38;;;;;;;10.52;63.50;100232.59;5103857;28;20056;-61
2022/04/06 06:19:56;;;;;;;10.13;1.80;;;;;;;10.49;63.15;100225.81;5110583;28;20052;-61
2022/04/06 06:22:23;;;;;;;4.97;2.10;;;;;;;10.49;63.63;100233.06;5124712;28;20074;-61
2022/04/06 06:24:51;;;;;;;8.27;2.42;;;;;;;10.48;63.88;100236.81;5120541;28;20079;-61
2022/04/06 06:27:19;;;;;;;7.90;1.75;;;;;;;10.52;63.88;100233.41;5125373;28;20065;-61
2022/04/06 06:29:49;;;;;;;6.97;1.60;;;;;;;10.49;63.98;100233.88;5119893;28;20100;-61
2022/04/06 06:32:17;;;;;;;6.50;1.80;;;;;;;10.48;63.81;100228.75;5123282;28;20082;-61
2022/04/06 06:34:45;;;;;;;10.05;1.80;;;;;;;10.46;63.81;100223.63;5121438;28;20070;-62
2022/04/06 06:37:13;;;;;;;6.75;3.28;;;;;;;10.46;63.96;100223.63;5112916;28;20082;-61
2022/04/06 06:39:41;;;;;;;5.88;1.95;;;;;;;10.46;63.74;100214.75;5120711;28;20075;-61
2022/04/06 06:42:10;;;;;;;10.52;2.33;;;;;;;10.45;63.75;100216.59;5122921;28;20115;-62
2022/04/06 06:44:37;;;;;;;9.63;2.35;;;;;;;10.44;63.42;100215.78;5123743;28;20162;-60
2022/04/06 06:47:06;;;;;;;8.02;2.03;;;;;;;10.44;63.02;100209.59;5124617;28;20082;-61
2022/04/06 06:49:34;;;;;;;7.97;2.50;;;;;;;10.46;63.01;100212.06;5127907;27;20174;-61
2022/04/06 06:52:02;;;;;;;8.88;2.15;;;;;;;10.44;62.99;100218.47;5118229;28;20044;-60
2022/04/06 06:54:30;;;;;;;5.78;1.50;;;;;;;10.42;63.09;100212.53;5116054;28;20071;-61
2022/04/06 06:56:57;;;;;;;8.70;2.47;;;;;;;10.48;63.60;100223.38;5108861;28;20131;-61
2022/04/06 06:59:25;;;;;;;7.60;1.92;;;;;;;10.53;63.25;100220.81;5121905;28;20060;-61
2022/04/06 07:01:53;;;;;;;6.63;1.70;;;;;;;10.48;63.50;100223.38;5116304;28;20090;-62
2022/04/06 07:04:22;;;;;;;8.18;2.08;;;;;;;10.52;63.40;100214.59;5118944;27;20199;-62
2022/04/06 07:06:50;;;;;;;8.90;2.75;;;;;;;10.48;63.59;100213.44;5118071;27;20075;-61
2022/04/06 07:09:18;;;;;;;10.15;2.03;;;;;;;10.46;63.82;100212.88;5115560;28;20079;-61
2022/04/06 07:11:46;;;;;;;9.07;2.92;;;;;;;10.47;64.23;100208.31;5111189;28;20047;-61
2022/04/06 07:14:14;;;;;;;7.15;2.00;;;;;;;10.45;63.75;100211.22;5114697;28;20068;-63
2022/04/06 07:16:41;;;;;;;8.48;2.40;;;;;;;10.49;64.37;100198.16;5115797;27;20107;-62
2022/04/06 07:19:09;;;;;;;7.35;1.63;;;;;;;10.49;64.32;100198.97;5134074;27;20048;-62
2022/04/06 07:21:38;;;;;;;8.70;2.30;;;;;;;10.50;64.02;100197.91;5123539;28;20116;-62
2022/04/06 07:24:06;;;;;;;11.32;3.55;;;;;;;10.49;64.01;100206.22;5120815;27;20071;-62
2022/04/06 07:26:34;;;;;;;10.93;2.70;;;;;;;10.60;63.81;100202.69;5112032;28;20078;-63
2022/04/06 07:29:01;;;;;;;5.97;2.38;;;;;;;10.54;64.12;100193.69;5121711;28;20050;-62
2022/04/06 07:31:29;;;;;;;8.50;1.98;;;;;;;10.53;64.57;100196.63;5120222;28;20146;-62
2022/04/06 07:33:57;;;;;;;8.63;2.95;;;;;;;10.54;64.29;100184.81;5116582;28;20110;-63
2022/04/06 07:36:25;;;;;;;5.25;1.80;;;;;;;10.50;64.22;100184.47;5113972;28;20082;-63
2022/04/06 07:38:54;;;;;;;9.27;3.03;;;;;;;10.49;64.24;100179.34;5117202;28;20048;-63
2022/04/06 07:41:24;;;;;;;5.72;1.85;;;;;;;10.48;64.54;100183.91;5120319;28;20078;-62
2022/04/06 07:43:52;;;;;;;13.45;3.35;;;;;;;10.57;64.20;100185.16;5120480;28;20054;-63
2022/04/06 07:46:20;;;;;;;7.32;1.95;;;;;;;10.54;64.63;100179.44;5119703;28;20530;-63
2022/04/06 07:48:48;;;;;;;7.25;1.90;;;;;;;10.54;64.37;100177.56;5121019;28;20067;-62
2022/04/06 07:51:16;;;;;;;6.03;2.28;;;;;;;10.54;64.55;100171.38;5114916;28;20047;-62
2022/04/06 07:53:44;;;;;;;6.90;1.90;;;;;;;10.54;64.20;100168.69;5114547;28;20143;-69
2022/04/06 07:56:19;;;;;;;6.65;2.15;;;;;;;10.58;63.95;100164.47;5130766;27;20048;-69
2022/04/06 07:58:46;;;;;;;12.50;3.60;;;;;;;10.67;64.11;100168.41;5118744;28;20048;-66
2022/04/06 08:01:14;;;;;;;6.90;2.42;;;;;;;10.74;63.64;100164.53;5104046;28;20127;-67
2022/04/06 08:03:42;;;;;;;9.30;1.73;;;;;;;10.89;63.21;100161.31;5120365;28;20116;-66
2022/04/06 08:06:10;;;;;;;9.98;3.08;;;;;;;11.05;62.66;100154.34;5121702;28;20082;-67
2022/04/06 08:08:37;;;;;;;4.72;1.90;;;;;;;11.21;62.34;100147.38;5111673;28;20060;-66
2022/04/06 08:11:05;;;;;;;12.98;3.35;;;;;;;11.35;61.72;100144.13;5105303;28;20040;-66
2022/04/06 08:13:34;;;;;;;7.68;2.47;;;;;;;11.47;61.27;100149.41;5117372;28;20121;-67
2022/04/06 08:16:02;;;;;;;7.75;2.22;;;;;;;11.65;60.72;100151.06;5118198;28;20055;-65
2022/04/06 08:18:30;;;;;;;7.38;1.83;;;;;;;11.77;60.25;100154.50;5117394;28;20089;-61
2022/04/06 08:20:59;;;;;;;10.55;1.83;;;;;;;11.97;59.71;100153.97;5113114;28;20044;-62
2022/04/06 08:23:26;;;;;;;8.77;2.15;;;;;;;12.00;59.44;100150.78;5119188;28;20040;-62
2022/04/06 08:25:54;;;;;;;9.82;2.08;;;;;;;11.93;59.46;100155.53;5120383;28;20047;-62
2022/04/06 08:28:22;;;;;;;7.50;2.00;;;;;;;11.81;59.98;100155.63;5118279;28;20071;-62
2022/04/06 08:30:51;;;;;;;10.23;2.45;;;;;;;11.67;60.50;100157.81;5122569;27;20090;-61
2022/04/06 08:33:19;;;;;;;3.22;1.40;;;;;;;11.54;60.69;100160.03;5116616;27;20050;-62
2022/04/06 08:35:54;;;;;;;7.10;1.92;;;;;;;11.43;61.32;100155.53;5115637;28;20089;-62
2022/04/06 08:38:22;;;;;;;8.98;1.77;;;;;;;11.34;61.59;100153.25;5119682;28;20075;-61
2022/04/06 08:40:51;;;;;;;8.95;2.40;;;;;;;11.38;62.17;100153.56;5113537;28;20062;-61
2022/04/06 08:43:19;;;;;;;6.35;1.75;;;;;;;11.28;61.95;100156.09;5121718;28;20083;-61
2022/04/06 08:45:47;;;;;;;11.00;2.63;;;;;;;11.20;61.79;100161.88;5116152;28;20518;-61
2022/04/06 08:48:17;;;;;;;5.75;1.80;;;;;;;11.21;62.20;100150.88;5116528;28;20084;-62
2022/04/06 08:50:46;;;;;;;7.93;2.22;;;;;;;11.13;62.28;100153.16;5110507;28;20044;-62
2022/04/06 08:53:14;;;;;;;12.85;3.20;;;;;;;11.10;62.57;100165.19;5121351;28;20135;-61
2022/04/06 08:55:43;;;;;;;7.90;2.15;;;;;;;11.07;62.67;100154.94;5120209;28;20047;-62
2022/04/06 08:58:10;;;;;;;7.15;2.20;;;;;;;11.04;62.99;100150.84;5123467;28;20077;-60
2022/04/06 09:00:38;;;;;;;3.75;1.60;;;;;;;11.00;63.06;100157.75;5122789;28;20058;-63
2022/04/06 09:03:07;;;;;;;4.25;2.05;;;;;;;11.00;63.04;100160.47;5125191;28;20047;-62
2022/04/06 09:05:36;;;;;;;9.18;1.80;;;;;;;10.97;63.08;100160.13;5121811;28;20502;-62
2022/04/06 09:08:05;;;;;;;6.72;1.75;;;;;;;10.98;63.22;100148.31;5119177;28;20055;-63
2022/04/06 09:10:41;;;;;;;7.68;1.75;;;;;;;10.97;63.25;100152.06;5125798;28;20047;-63
2022/04/06 09:13:11;;;;;;;15.82;3.25;;;;;;;10.94;63.46;100161.41;5123360;27;20404;-62
2022/04/06 09:15:39;;;;;;;6.15;2.13;;;;;;;10.92;63.54;100160.03;4754935;28;9999743;-62
2022/04/06 09:18:07;;;;;;;5.28;2.00;;;;;;;10.94;63.52;100150.66;5121942;28;20051;-62
2022/04/06 09:20:36;;;;;;;8.00;1.52;;;;;;;10.92;63.75;100151.97;5120410;28;20083;-62
2022/04/06 09:23:05;;;;;;;6.45;1.95;;;;;;;10.93;63.83;100151.72;5116010;28;20079;-62
2022/04/06 09:25:35;;;;;;;4.13;1.77;;;;;;;10.88;63.63;100146.25;5112165;28;20071;-62
2022/04/06 09:28:08;;;;;;;8.20;1.70;;;;;;;10.88;63.63;100146.25;5115456;28;20051;-63
2022/04/06 09:30:39;;;;;;;5.85;1.90;;;;;;;10.89;63.59;100152.44;5113563;28;20054;-63
2022/04/06 09:33:13;;;;;;;5.10;1.70;;;;;;;10.69;63.68;100118.75;5120159;28;20146;-62
2022/04/06 09:35:43;;;;;;;4.55;1.75;;;;;;;10.85;63.68;100157.47;5126124;27;20071;-61
2022/04/06 09:38:12;;;;;;;8.00;2.75;;;;;;;10.85;63.99;100148.59;5118713;28;20079;-61
2022/04/06 09:40:40;;;;;;;6.40;1.45;;;;;;;10.85;63.90;100140.53;5114897;28;20047;-61
2022/04/06 09:43:09;;;;;;;13.07;3.70;;;;;;;10.85;64.00;100154.81;5120937;28;20081;-59
2022/04/06 09:48:22;;;;;;;5.78;1.98;;;;;;;10.90;63.82;100154.06;5112725;28;20122;-60
2022/04/06 09:50:56;;;;;;;13.35;2.88;;;;;;;10.85;64.04;100144.03;5107284;28;20075;-59
2022/04/06 09:53:27;;;;;;;10.02;2.10;;;;;;;10.85;64.22;100143.22;5115631;28;20077;-59
2022/04/06 09:55:57;;;;;;;5.55;1.55;;;;;;;10.84;64.00;100142.41;5119165;28;20138;-58
2022/04/06 09:58:25;;;;;;;5.25;1.95;;;;;;;10.93;63.59;100145.53;5102526;28;20052;-59
2022/04/06 10:00:54;;;;;;;9.65;2.17;;;;;;;10.85;63.76;100132.47;5102137;28;20153;-58
2022/04/06 10:03:22;;;;;;;10.52;2.03;;;;;;;10.84;64.30;100134.34;5122583;28;20085;-59
2022/04/06 10:05:51;;;;;;;6.40;1.60;;;;;;;10.85;64.16;100135.16;5109005;28;20052;-59
2022/04/06 10:08:22;;;;;;;9.38;1.73;;;;;;;10.84;64.43;100130.84;5118681;28;20099;-59
2022/04/06 10:10:55;;;;;;;8.02;2.30;;;;;;;10.84;64.54;100134.34;5105227;28;20088;-59
2022/04/06 10:13:24;;;;;;;6.50;1.75;;;;;;;10.83;64.23;100130.03;5120147;28;20047;-59
2022/04/06 10:16:13;;;;;;;8.20;2.20;;;;;;;10.80;64.27;100132.38;5113321;28;20047;-59
2022/04/06 10:18:42;;;;;;;9.95;2.10;;;;;;;10.82;64.46;100117.66;5118818;28;20047;-59
2022/04/06 10:21:14;;;;;;;10.05;2.50;;;;;;;10.86;64.02;100118.78;5117856;28;20060;-59
2022/04/06 10:23:54;;;;;;;9.25;2.67;;;;;;;10.84;64.10;100117.41;5119238;28;20063;-58
2022/04/06 10:26:36;;;;;;;4.35;2.22;;;;;;;10.87;64.60;100114.22;5113415;28;20056;-59
2022/04/06 10:29:05;;;;;;;9.15;2.25;;;;;;;10.85;64.58;100110.97;5119545;28;20052;-59
2022/04/06 10:31:33;;;;;;;6.22;1.65;;;;;;;10.85;64.18;100111.78;5119347;28;20052;-59
2022/04/06 10:34:22;;;;;;;7.03;2.08;;;;;;;10.83;64.35;100108.53;5114054;28;20114;-59
2022/04/06 10:37:07;;;;;;;7.03;2.45;;;;;;;10.84;64.20;100110.16;5117907;28;20039;-60
2022/04/06 10:39:58;;;;;;;9.00;2.17;;;;;;;10.84;64.05;100109.34;5116744;27;20048;-60
2022/04/06 10:42:37;;;;;;;12.00;1.98;;;;;;;10.83;64.13;100113.91;5119399;28;20059;-59
2022/04/06 10:45:27;;;;;;;8.68;2.58;;;;;;;10.87;64.06;100109.69;5114178;28;20056;-59
2022/04/06 10:48:13;;;;;;;10.55;2.33;;;;;;;11.05;63.39;100109.47;5118566;28;20047;-59
2022/04/06 10:50:42;;;;;;;9.07;2.00;;;;;;;11.19;62.98;100098.38;5114381;28;20090;-59
2022/04/06 10:53:31;;;;;;;4.18;1.30;;;;;;;11.38;62.44;100099.78;5118505;28;20076;-60
2022/04/06 10:56:05;;;;;;;7.65;1.60;;;;;;;11.52;62.55;100101.06;5108907;28;20086;-60
2022/04/06 10:59:06;;;;;;;8.55;1.90;;;;;;;11.69;62.03;100098.34;5118213;28;20484;-60
2022/04/06 11:01:34;;;;;;;6.68;1.65;;;;;;;11.85;61.93;100099.41;5121671;28;20083;-60
2022/04/06 11:04:04;;;;;;;3.25;1.23;;;;;;;11.92;61.00;100083.91;5121274;28;20043;-60
2022/04/06 11:06:59;;;;;;;6.70;1.95;;;;;;;12.18;60.59;100096.59;5105975;28;20036;-60
2022/04/06 11:12:17;;;;;;;10.00;2.47;;;;;;;12.50;59.79;100087.78;5107417;28;20465;-60
2022/04/06 11:14:46;;;;;;;7.50;1.90;;;;;;;12.62;58.96;100089.28;5121147;28;20071;-59
2022/04/06 11:17:41;;;;;;;6.25;1.80;;;;;;;12.59;59.17;100083.59;5121514;28;20078;-60
2022/04/06 11:20:11;;;;;;;4.03;1.25;;;;;;;12.36;59.89;100066.63;5111677;27;20059;-60
2022/04/06 11:22:43;;;;;;;3.28;1.27;;;;;;;12.32;60.40;100075.47;5121828;27;20516;-60
2022/04/06 11:25:12;;;;;;;5.85;2.33;;;;;;;12.17;60.45;100073.41;5111142;28;20056;-60
2022/04/06 11:27:43;;;;;;;3.63;1.20;;;;;;;12.01;61.15;100069.75;5102851;28;20083;-60
2022/04/06 11:30:13;;;;;;;5.13;1.83;;;;;;;11.87;61.83;100073.06;5120463;28;20090;-60
2022/04/06 11:32:43;;;;;;;6.57;2.67;;;;;;;11.82;62.21;100073.00;5120403;28;20120;-60
2022/04/06 11:35:12;;;;;;;5.00;1.80;;;;;;;11.75;62.46;100075.81;5115948;28;20507;-61
2022/04/06 11:37:42;;;;;;;7.25;1.80;;;;;;;11.70;62.44;100062.31;5121029;28;20075;-61
2022/04/06 11:40:11;;;;;;;5.07;1.70;;;;;;;11.73;62.67;100064.50;5108114;28;20477;-61
2022/04/06 11:42:39;;;;;;;4.78;1.27;;;;;;;11.67;62.66;100062.78;5122706;27;20071;-60